Terminal Aerodrome Forecast
Issued by NWS

Home | Current Version | Previous Version | Text Only | Print | Product List | Glossary On
Versions: 1 2 3 4 5 6 7 8 9 10 11 12 13 14
000
FTUS46 KHNX 202320
TAFFAT
TAF
KFAT 202320Z 2100/2124 30007KT P6SM FEW120 SCT250
     FM210200 31014G21KT P6SM BKN050
     FM210900 31009KT P6SM FEW070=

USA.gov is the U.S. government's official web portal to all federal, state and local government web resources and services.